Time;durP1;ratioP1;P1;durP2;ratioP2;P2;SDS_P1;SDS_P2;PMS_P1;PMS_P2;Temp;Humidity;BMP_temperature;BMP_pressure;BME280_temperature;BME280_humidity;BME280_pressure;Samples;Min_cycle;Max_cycle;Signal;HPM_P1;HPM_P2
2022/11/19 00:02:10;;;;;;;32.10;17.60;;;;;;;6.01;100.00;99319.20;105020;1278;62817;-68
2022/11/19 00:04:39;;;;;;;33.60;17.80;;;;;;;6.00;100.00;99326.55;105205;1270;59109;-66
2022/11/19 00:07:08;;;;;;;30.50;17.40;;;;;;;5.97;100.00;99328.03;105148;1277;58858;-70
2022/11/19 00:09:37;;;;;;;31.10;17.90;;;;;;;5.95;100.00;99330.59;105202;1276;61632;-67
2022/11/19 00:14:55;;;;;;;31.50;16.40;;;;;;;5.93;100.00;99335.72;105161;1277;59121;-69
2022/11/19 00:17:24;;;;;;;27.30;14.50;;;;;;;5.89;100.00;99335.13;105167;1276;73506;-67
2022/11/19 00:19:52;;;;;;;25.60;14.10;;;;;;;5.84;100.00;99340.86;105218;1263;61237;-66
2022/11/19 00:22:21;;;;;;;22.70;12.50;;;;;;;5.80;100.00;99339.26;105238;1278;57348;-67
2022/11/19 00:24:50;;;;;;;20.70;11.10;;;;;;;5.70;100.00;99349.81;105238;1278;61708;-66
2022/11/19 00:27:19;;;;;;;20.80;12.20;;;;;;;5.63;100.00;99349.70;105244;1273;70360;-67
2022/11/19 00:29:47;;;;;;;20.30;13.20;;;;;;;5.58;100.00;99351.77;105365;1273;69887;-67
2022/11/19 00:32:16;;;;;;;15.30;10.80;;;;;;;5.47;100.00;99354.48;105260;1270;74794;-66
2022/11/19 00:34:45;;;;;;;14.50;10.50;;;;;;;5.44;100.00;99349.00;105103;1270;59022;-67
2022/11/19 00:37:14;;;;;;;14.30;10.60;;;;;;;5.40;100.00;99353.78;105247;1277;58546;-67
2022/11/19 00:39:43;;;;;;;18.50;12.80;;;;;;;5.32;100.00;99364.05;105312;1274;70752;-67
2022/11/19 00:42:12;;;;;;;18.90;12.50;;;;;;;5.27;100.00;99359.70;105336;1267;70656;-66
2022/11/19 00:44:41;;;;;;;18.10;11.90;;;;;;;5.26;100.00;99361.87;105428;1264;71537;-66
2022/11/19 00:47:09;;;;;;;15.50;10.40;;;;;;;5.20;100.00;99365.93;105353;1263;73795;-70
2022/11/19 00:49:38;;;;;;;14.60;9.80;;;;;;;5.20;100.00;99389.55;105284;1273;61279;-66
2022/11/19 00:52:07;;;;;;;16.70;11.60;;;;;;;5.19;100.00;99394.83;105126;1268;59088;-67
2022/11/19 00:54:36;;;;;;;14.70;10.50;;;;;;;5.23;100.00;99396.61;105132;1266;71891;-68
2022/11/19 00:57:05;;;;;;;19.40;12.70;;;;;;;5.18;100.00;99399.91;105149;1273;61765;-67
2022/11/19 00:59:34;;;;;;;15.20;10.00;;;;;;;5.16;100.00;99403.48;105173;1270;59339;-67
2022/11/19 01:02:03;;;;;;;15.60;9.80;;;;;;;5.16;100.00;99401.58;104978;1278;62448;-67
2022/11/19 01:04:32;;;;;;;14.40;9.40;;;;;;;5.14;100.00;99403.13;105052;1267;59086;-66
2022/11/19 01:07:01;;;;;;;12.00;7.40;;;;;;;5.09;100.00;99400.48;105006;1273;60856;-68
2022/11/19 01:09:30;;;;;;;14.00;9.00;;;;;;;5.02;100.00;99404.65;105163;1270;73533;-68
2022/11/19 01:11:59;;;;;;;12.90;8.90;;;;;;;4.97;100.00;99413.77;105243;1270;72408;-69
2022/11/19 01:14:28;;;;;;;10.50;6.50;;;;;;;4.84;100.00;99415.69;105290;1263;69731;-68
2022/11/19 01:16:56;;;;;;;10.80;6.20;;;;;;;4.82;100.00;99412.05;105288;1273;72179;-68
2022/11/19 01:19:25;;;;;;;9.70;6.40;;;;;;;4.79;100.00;99420.90;105280;1268;61891;-65
2022/11/19 01:21:54;;;;;;;10.20;6.90;;;;;;;4.84;100.00;99420.88;105330;1270;59044;-66
2022/11/19 01:24:23;;;;;;;10.80;7.20;;;;;;;4.85;100.00;99429.24;105287;1278;70704;-66
2022/11/19 01:26:52;;;;;;;8.30;5.60;;;;;;;4.74;100.00;99441.05;105317;1259;71909;-66
2022/11/19 01:29:21;;;;;;;7.80;4.70;;;;;;;4.69;100.00;99451.44;105260;1278;61569;-65
2022/11/19 01:31:49;;;;;;;6.80;4.60;;;;;;;4.66;100.00;99447.86;105290;1259;73080;-67
2022/11/19 01:34:18;;;;;;;7.50;4.60;;;;;;;4.59;100.00;99447.61;105359;1270;59050;-69
2022/11/19 01:36:47;;;;;;;5.50;3.10;;;;;;;4.50;100.00;99457.34;105317;1273;59113;-69
2022/11/19 01:39:16;;;;;;;5.00;2.80;;;;;;;4.38;100.00;99458.85;105631;1278;71023;-69
2022/11/19 01:41:46;;;;;;;3.70;2.20;;;;;;;4.35;100.00;99465.59;105576;1263;71610;-71
2022/11/19 01:45:06;;;;;;;2.90;1.90;;;;;;;4.29;100.00;99464.64;105581;1273;70211;-69
2022/11/19 01:47:35;;;;;;;2.00;1.50;;;;;;;4.15;100.00;99471.06;105464;1277;72965;-65
2022/11/19 01:50:05;;;;;;;3.60;2.00;;;;;;;4.06;100.00;99475.30;105516;1265;59115;-68
2022/11/19 01:52:34;;;;;;;2.80;2.10;;;;;;;3.96;100.00;99486.89;105496;1268;59032;-68
2022/11/19 01:55:04;;;;;;;4.40;2.40;;;;;;;3.90;100.00;99475.11;105478;1269;62506;-67
2022/11/19 01:57:34;;;;;;;4.10;2.20;;;;;;;3.83;100.00;99480.70;105334;1269;61606;-69
2022/11/19 02:00:05;;;;;;;4.60;2.60;;;;;;;3.71;100.00;99480.77;105205;1276;70069;-68
2022/11/19 02:02:34;;;;;;;4.00;2.60;;;;;;;3.64;100.00;99496.54;105320;1278;73601;-69
2022/11/19 02:05:03;;;;;;;3.40;2.60;;;;;;;3.57;100.00;99503.70;105147;1278;61869;-69
2022/11/19 02:07:35;;;;;;;4.60;3.10;;;;;;;3.50;100.00;99500.16;105478;1263;59029;-69
2022/11/19 02:10:05;;;;;;;4.10;2.60;;;;;;;3.45;100.00;99497.38;105211;1266;73144;-70
2022/11/19 02:12:59;;;;;;;4.40;2.50;;;;;;;3.41;100.00;99501.58;105264;1277;61870;-70
2022/11/19 02:15:36;;;;;;;;;;;;;;;3.38;100.00;99513.52;105133;1271;70089;-68
2022/11/19 02:18:30;;;;;;;4.70;3.20;;;;;;;3.32;100.00;99526.08;105162;1270;74288;-67
2022/11/19 02:21:36;;;;;;;4.20;2.50;;;;;;;3.29;100.00;99544.30;105155;1269;59136;-65
2022/11/19 02:24:51;;;;;;;4.10;2.20;;;;;;;3.23;100.00;99547.83;105134;1273;57429;-68
2022/11/19 02:27:46;;;;;;;2.80;2.10;;;;;;;3.15;100.00;99555.12;104928;1268;71922;-68
2022/11/19 02:30:18;;;;;;;3.20;2.20;;;;;;;3.07;100.00;99570.05;105269;1266;69456;-65
2022/11/19 02:32:57;;;;;;;3.20;2.20;;;;;;;3.06;100.00;99585.48;105264;1270;59959;-66
2022/11/19 02:35:57;;;;;;;1.60;1.40;;;;;;;3.10;100.00;99601.02;105275;1270;62276;-68
2022/11/19 02:38:47;;;;;;;2.30;1.40;;;;;;;3.10;100.00;99605.54;105342;1275;57606;-65
2022/11/19 02:41:39;;;;;;;1.90;1.30;;;;;;;3.07;100.00;99612.05;105346;1266;59053;-67
2022/11/19 02:47:21;;;;;;;1.70;1.30;;;;;;;2.89;100.00;99614.45;105330;1269;71660;-66
2022/11/19 02:49:55;;;;;;;2.20;1.30;;;;;;;2.90;100.00;99629.06;105344;1267;69818;-65
2022/11/19 02:52:24;;;;;;;2.10;1.30;;;;;;;2.87;100.00;99632.10;105342;1275;74173;-65
2022/11/19 02:54:52;;;;;;;2.30;1.20;;;;;;;2.86;100.00;99643.20;105274;1263;61966;-68
2022/11/19 02:57:21;;;;;;;1.60;1.10;;;;;;;2.84;100.00;99649.16;105386;1273;60663;-65
2022/11/19 03:05:49;;;;;;;1.10;1.00;;;;;;;2.61;100.00;99675.92;105337;1278;69606;-69
2022/11/19 03:08:19;;;;;;;1.00;0.90;;;;;;;2.59;100.00;99678.80;105411;1271;63012;-69
2022/11/19 03:11:19;;;;;;;1.60;1.30;;;;;;;2.59;100.00;99696.12;105396;1267;61882;-70
2022/11/19 03:17:04;;;;;;;2.10;1.10;;;;;;;2.53;100.00;99723.27;105332;1278;71680;-66
2022/11/19 03:19:46;;;;;;;1.00;0.90;;;;;;;2.53;100.00;99728.46;105577;1264;61831;-67
2022/11/19 03:22:25;;;;;;;1.50;1.00;;;;;;;2.52;100.00;99737.78;105582;1260;59796;-68
2022/11/19 03:25:25;;;;;;;0.90;0.80;;;;;;;2.51;100.00;99756.59;105453;1267;74030;-67
2022/11/19 03:28:04;;;;;;;1.10;1.00;;;;;;;2.46;100.00;99763.54;105501;1270;58809;-69
2022/11/19 03:30:33;;;;;;;1.10;1.00;;;;;;;2.41;100.00;99752.11;105570;1264;59277;-67
2022/11/19 03:33:41;;;;;;;1.30;1.10;;;;;;;2.44;100.00;99761.91;105830;1262;73232;-67
2022/11/19 03:36:17;;;;;;;1.10;1.00;;;;;;;2.37;100.00;99789.29;105605;1266;71789;-68
2022/11/19 03:38:51;;;;;;;1.60;1.40;;;;;;;2.32;100.00;99792.13;105555;1266;70541;-70
2022/11/19 03:41:23;;;;;;;2.00;1.50;;;;;;;2.27;100.00;99804.42;105517;1261;63654;-68
2022/11/19 03:44:27;;;;;;;2.20;1.60;;;;;;;2.22;99.75;99819.80;105492;1266;60277;-68
2022/11/19 03:47:03;;;;;;;;;;;;;;;2.15;99.54;99812.58;105352;1271;61607;-67
2022/11/19 03:49:40;;;;;;;1.70;1.60;;;;;;;2.10;99.86;99827.30;105543;1261;63658;-68
2022/11/19 03:52:21;;;;;;;3.30;1.70;;;;;;;2.10;99.01;99848.41;105489;1261;60590;-67
2022/11/19 03:54:49;;;;;;;2.00;1.50;;;;;;;2.10;99.22;99860.11;105481;1272;69665;-69
2022/11/19 03:57:22;;;;;;;2.10;1.90;;;;;;;2.05;98.64;99864.13;105582;1264;74548;-67
2022/11/19 03:59:51;;;;;;;2.60;1.70;;;;;;;2.03;97.96;99877.98;105648;1264;61458;-69
2022/11/19 04:02:20;;;;;;;2.30;1.60;;;;;;;1.96;97.53;99889.48;105612;1260;59190;-67
2022/11/19 04:04:49;;;;;;;4.30;1.80;;;;;;;2.00;97.86;99888.94;105471;1275;62480;-67
2022/11/19 04:07:21;;;;;;;4.60;2.40;;;;;;;1.96;98.26;99894.45;105560;1267;61093;-67
2022/11/19 04:09:50;;;;;;;3.50;2.40;;;;;;;1.97;98.70;99909.67;105401;1263;70450;-69
2022/11/19 04:12:24;;;;;;;3.30;2.60;;;;;;;1.95;98.73;99925.41;105551;1264;73324;-67
2022/11/19 04:14:53;;;;;;;3.40;2.50;;;;;;;1.99;98.58;99937.25;105435;1266;61297;-67
2022/11/19 04:17:21;;;;;;;5.70;3.40;;;;;;;1.96;97.22;99933.61;105455;1266;61069;-68
2022/11/19 04:19:50;;;;;;;5.40;3.30;;;;;;;1.88;97.43;99942.77;105499;1274;63498;-69
2022/11/19 04:22:19;;;;;;;6.00;4.00;;;;;;;1.82;97.37;99944.59;105570;1270;61177;-69
2022/11/19 04:24:48;;;;;;;6.00;3.90;;;;;;;1.76;97.63;99938.20;105526;1265;61438;-70
2022/11/19 04:27:17;;;;;;;6.10;4.20;;;;;;;1.71;97.90;99943.60;105574;1266;63401;-69
2022/11/19 04:29:46;;;;;;;6.10;4.10;;;;;;;1.69;97.79;99953.29;105528;1260;59031;-69
2022/11/19 04:32:15;;;;;;;4.90;3.80;;;;;;;1.64;97.45;99957.15;105566;1270;60759;-68
2022/11/19 04:34:43;;;;;;;5.50;3.90;;;;;;;1.62;97.62;99947.80;105479;1270;73566;-67
2022/11/19 04:37:13;;;;;;;5.60;4.30;;;;;;;1.57;97.62;99946.30;105433;1263;71561;-68
2022/11/19 04:39:41;;;;;;;6.50;4.40;;;;;;;1.53;97.77;99954.91;105445;1266;69865;-66
2022/11/19 04:42:11;;;;;;;5.60;3.20;;;;;;;1.48;98.11;99967.16;105375;1269;73741;-68
2022/11/19 04:44:40;;;;;;;6.00;4.50;;;;;;;1.52;98.45;99978.30;105946;1266;61111;-68
2022/11/19 04:47:08;;;;;;;6.00;4.20;;;;;;;1.48;98.34;99989.64;105420;1265;60816;-66
2022/11/19 04:49:37;;;;;;;7.10;4.30;;;;;;;1.53;99.12;100001.59;105455;1267;73621;-67
2022/11/19 04:52:06;;;;;;;5.70;3.90;;;;;;;1.59;98.78;100007.83;105373;1259;62876;-67
2022/11/19 04:54:35;;;;;;;7.90;4.60;;;;;;;1.64;98.33;100018.62;105563;1267;68127;-69
2022/11/19 04:57:04;;;;;;;8.20;4.40;;;;;;;1.65;98.01;100024.57;105502;1265;62242;-69
2022/11/19 04:59:33;;;;;;;7.50;4.90;;;;;;;1.69;97.70;100035.34;105540;1266;62037;-69
2022/11/19 05:02:02;;;;;;;6.50;4.30;;;;;;;1.68;97.74;100039.71;107665;1266;61112;-70
2022/11/19 05:04:30;;;;;;;8.10;4.70;;;;;;;1.71;98.17;100043.85;107622;1265;63224;-70
2022/11/19 05:06:59;;;;;;;7.60;5.30;;;;;;;1.77;98.91;100048.73;107714;1262;61452;-68
2022/11/19 05:09:27;;;;;;;8.00;4.70;;;;;;;1.79;98.01;100053.61;107791;1261;71073;-69
2022/11/19 05:11:56;;;;;;;6.20;4.10;;;;;;;1.85;98.40;100057.79;107631;1260;62742;-69
2022/11/19 05:14:25;;;;;;;7.20;4.30;;;;;;;1.86;97.72;100065.64;107631;1273;61900;-70
2022/11/19 05:16:57;;;;;;;7.50;5.70;;;;;;;1.83;97.10;100073.16;107622;1260;61478;-69
2022/11/19 05:19:26;;;;;;;7.70;5.30;;;;;;;1.86;97.34;100077.81;107653;1269;62507;-69
2022/11/19 05:21:55;;;;;;;9.30;5.80;;;;;;;1.89;96.87;100083.71;107791;1269;72190;-70
2022/11/19 05:24:23;;;;;;;9.10;6.10;;;;;;;1.89;97.59;100092.11;107583;1272;70821;-68
2022/11/19 05:26:52;;;;;;;9.90;6.90;;;;;;;1.86;95.62;100103.24;107667;1261;62696;-70
2022/11/19 05:29:21;;;;;;;8.50;5.60;;;;;;;1.91;95.01;100115.91;107602;1268;62102;-70
2022/11/19 05:31:49;;;;;;;11.70;7.70;;;;;;;1.93;94.22;100125.08;107607;1257;60546;-70
2022/11/19 05:34:18;;;;;;;10.30;6.40;;;;;;;1.90;93.86;100139.63;107832;1256;63323;-70
2022/11/19 05:36:47;;;;;;;10.80;7.30;;;;;;;1.84;92.05;100150.38;107844;1257;71370;-72
2022/11/19 05:39:15;;;;;;;10.70;6.00;;;;;;;1.67;92.13;100161.27;107656;1262;69826;-71
2022/11/19 05:41:49;;;;;;;10.70;6.10;;;;;;;1.75;92.36;100171.56;107598;1257;74311;-69
2022/11/19 05:44:18;;;;;;;10.00;7.50;;;;;;;1.75;92.49;100187.02;107670;1266;57979;-70
2022/11/19 05:46:46;;;;;;;12.50;7.20;;;;;;;1.81;93.05;100196.86;107673;1267;60939;-69
2022/11/19 05:49:15;;;;;;;9.70;6.50;;;;;;;1.84;92.24;100198.29;107651;1269;62571;-69
2022/11/19 05:51:45;;;;;;;10.60;6.60;;;;;;;1.81;92.38;100203.73;107813;1265;61648;-70
2022/11/19 05:54:14;;;;;;;11.10;6.70;;;;;;;1.75;92.13;100206.06;107619;1266;59969;-69
2022/11/19 05:56:43;;;;;;;14.60;8.10;;;;;;;1.71;92.44;100216.87;107668;1254;74026;-70
2022/11/19 05:59:11;;;;;;;10.40;6.70;;;;;;;1.78;91.79;100221.58;107585;1259;61557;-69
2022/11/19 06:01:40;;;;;;;12.50;8.20;;;;;;;1.69;91.25;100219.70;107592;1266;58063;-69
2022/11/19 06:04:10;;;;;;;14.80;9.70;;;;;;;1.65;91.19;100230.70;107658;1254;70817;-71
2022/11/19 06:06:38;;;;;;;10.10;7.40;;;;;;;1.73;90.10;100225.55;107698;1258;72031;-72
2022/11/19 06:09:07;;;;;;;11.50;9.00;;;;;;;1.67;89.10;100236.47;107705;1263;59246;-71
2022/11/19 06:11:48;;;;;;;12.20;8.00;;;;;;;1.56;88.71;100237.82;107669;1263;73746;-69
2022/11/19 06:14:23;;;;;;;12.10;7.90;;;;;;;1.62;87.98;100238.55;107745;1260;61153;-69
2022/11/19 06:16:57;;;;;;;11.70;8.00;;;;;;;1.53;87.68;100240.66;107711;1260;60240;-69
2022/11/19 06:19:26;;;;;;;17.30;10.40;;;;;;;1.41;87.92;100251.63;107632;1263;74053;-70
2022/11/19 06:21:55;;;;;;;11.90;7.80;;;;;;;1.36;89.24;100257.67;107619;1258;72620;-72
2022/11/19 06:24:23;;;;;;;11.20;7.00;;;;;;;1.43;89.14;100263.75;107687;1260;68483;-72
2022/11/19 06:26:52;;;;;;;15.70;9.90;;;;;;;1.40;89.47;100268.65;107686;1265;71915;-71
2022/11/19 06:29:21;;;;;;;16.60;10.60;;;;;;;1.42;89.53;100267.75;107560;1262;61434;-70
2022/11/19 06:31:50;;;;;;;18.70;10.10;;;;;;;1.39;89.46;100279.53;107609;1263;61495;-70
2022/11/19 06:34:19;;;;;;;14.50;9.30;;;;;;;1.43;89.22;100287.58;107666;1267;63202;-70
2022/11/19 06:36:48;;;;;;;15.70;10.60;;;;;;;1.42;89.50;100294.67;107834;1261;70189;-69
2022/11/19 06:39:18;;;;;;;17.00;12.10;;;;;;;1.45;89.95;100308.13;107712;1266;59293;-69
2022/11/19 06:41:47;;;;;;;6.20;4.60;;;;;;;1.47;89.63;100325.89;107556;1263;62407;-70
2022/11/19 06:44:16;;;;;;;13.30;9.00;;;;;;;1.52;89.14;100327.54;107739;1266;57526;-70
2022/11/19 06:46:45;;;;;;;17.50;10.20;;;;;;;1.44;89.72;100324.13;107830;1257;57521;-70
2022/11/19 06:49:13;;;;;;;16.40;9.80;;;;;;;1.50;90.19;100327.48;107692;1270;72633;-70
2022/11/19 06:51:47;;;;;;;17.50;11.30;;;;;;;1.52;89.78;100329.61;107790;1265;72813;-70
2022/11/19 06:54:16;;;;;;;17.20;11.30;;;;;;;1.50;90.01;100345.14;107620;1263;68181;-69
2022/11/19 06:56:44;;;;;;;19.80;12.80;;;;;;;1.55;89.38;100359.54;107662;1260;72969;-67
2022/11/19 06:59:13;;;;;;;16.30;10.00;;;;;;;1.54;88.96;100369.52;107676;1266;59998;-73
2022/11/19 07:01:42;;;;;;;12.80;8.10;;;;;;;1.53;88.77;100379.52;107690;1264;58749;-70
2022/11/19 07:04:11;;;;;;;18.40;11.30;;;;;;;1.53;88.26;100397.01;107691;1262;71553;-71
2022/11/19 07:06:40;;;;;;;15.50;10.70;;;;;;;1.48;88.19;100402.55;107719;1258;71300;-70
2022/11/19 07:09:08;;;;;;;13.60;8.80;;;;;;;1.52;87.36;100410.61;107659;1264;70241;-70
2022/11/19 07:11:37;;;;;;;11.60;8.50;;;;;;;1.54;86.89;100406.75;107722;1264;70822;-75
2022/11/19 07:14:06;;;;;;;15.60;9.60;;;;;;;1.54;86.61;100412.75;107729;1264;62077;-69
2022/11/19 07:16:35;;;;;;;13.40;7.70;;;;;;;1.46;87.14;100422.01;107542;1260;60638;-71
2022/11/19 07:19:07;;;;;;;16.10;10.50;;;;;;;1.47;86.81;100430.55;107616;1257;73344;-70
2022/11/19 07:21:36;;;;;;;16.20;10.30;;;;;;;1.54;85.86;100432.86;107643;1261;70887;-72
2022/11/19 07:24:08;;;;;;;16.00;10.60;;;;;;;1.52;86.37;100418.85;107624;1264;70272;-71
2022/11/19 07:26:37;;;;;;;16.30;9.40;;;;;;;1.63;85.41;100432.35;107563;1270;72221;-71
2022/11/19 07:29:07;;;;;;;15.50;9.80;;;;;;;1.68;85.34;100434.70;107705;1266;59709;-71
2022/11/19 07:31:36;;;;;;;17.50;11.60;;;;;;;1.68;85.18;100436.25;107580;1260;59732;-72
2022/11/19 07:34:09;;;;;;;17.90;12.00;;;;;;;1.68;85.47;100437.29;107534;1270;70797;-71
2022/11/19 07:36:38;;;;;;;16.80;10.90;;;;;;;1.64;85.25;100446.03;107559;1260;70268;-72
2022/11/19 07:39:07;;;;;;;16.10;11.10;;;;;;;1.67;85.13;100451.40;107566;1260;70349;-70
2022/11/19 07:44:22;;;;;;;16.40;10.40;;;;;;;1.70;85.07;100458.13;107454;1270;61887;-71
2022/11/19 07:46:51;;;;;;;19.30;10.30;;;;;;;1.71;84.42;100459.80;107470;1266;59376;-71
2022/11/19 07:49:20;;;;;;;18.50;12.70;;;;;;;1.79;85.25;100462.39;107460;1266;70677;-72
2022/11/19 07:51:49;;;;;;;20.20;12.30;;;;;;;1.75;86.10;100458.79;107726;1261;72374;-72
2022/11/19 07:54:18;;;;;;;16.20;9.70;;;;;;;2.04;86.13;100466.05;107516;1256;69843;-72
2022/11/19 07:56:47;;;;;;;14.90;9.50;;;;;;;2.14;84.19;100465.98;107492;1263;71812;-70
2022/11/19 07:59:16;;;;;;;13.90;10.00;;;;;;;2.19;84.33;100471.95;107513;1253;61255;-72
2022/11/19 08:01:45;;;;;;;17.80;11.60;;;;;;;2.21;83.90;100481.84;107566;1263;61055;-72
2022/11/19 08:04:14;;;;;;;20.40;12.50;;;;;;;2.25;82.66;100486.80;107611;1266;72065;-71
2022/11/19 08:06:43;;;;;;;27.10;14.70;;;;;;;2.19;83.73;100487.42;107765;1257;71692;-70
2022/11/19 08:09:11;;;;;;;18.00;12.30;;;;;;;2.24;82.45;100500.11;107669;1269;70822;-70
2022/11/19 08:11:40;;;;;;;17.90;12.20;;;;;;;2.20;82.46;100510.73;107521;1263;71091;-71
2022/11/19 08:14:12;;;;;;;19.70;12.80;;;;;;;2.25;82.65;100522.06;107464;1263;60373;-74
2022/11/19 08:19:27;;;;;;;17.50;10.70;;;;;;;2.26;82.28;100521.84;107641;1269;73112;-72
2022/11/19 08:21:56;;;;;;;16.70;10.90;;;;;;;2.26;80.93;100521.31;107767;1269;61697;-72
2022/11/19 08:24:25;;;;;;;15.80;10.20;;;;;;;2.26;81.00;100526.34;107682;1270;67843;-73
2022/11/19 08:26:54;;;;;;;17.10;11.70;;;;;;;2.30;81.18;100528.90;107730;1260;73709;-72
2022/11/19 08:29:22;;;;;;;17.70;11.50;;;;;;;2.24;81.10;100528.13;107521;1259;61227;-73
2022/11/19 08:31:51;;;;;;;18.50;11.90;;;;;;;2.36;81.39;100538.45;107923;1259;60404;-71
2022/11/19 08:34:20;;;;;;;20.20;12.30;;;;;;;2.40;80.63;100544.30;107644;1259;73490;-73
2022/11/19 08:36:50;;;;;;;19.90;12.50;;;;;;;2.39;80.78;100546.42;107859;1255;71571;-71
2022/11/19 08:39:18;;;;;;;14.50;9.00;;;;;;;2.39;80.88;100550.34;107743;1260;70776;-73
2022/11/19 08:44:34;;;;;;;19.90;10.50;;;;;;;2.53;80.63;100576.75;107852;1263;57610;-71
2022/11/19 08:47:03;;;;;;;19.50;12.10;;;;;;;2.60;80.45;100587.83;107838;1259;60132;-73
2022/11/19 08:49:31;;;;;;;17.20;11.50;;;;;;;2.66;80.77;100598.21;107741;1260;74018;-72
2022/11/19 08:52:00;;;;;;;15.50;11.00;;;;;;;2.81;79.67;100604.64;107871;1265;70689;-71
2022/11/19 08:54:29;;;;;;;26.70;14.80;;;;;;;2.83;79.03;100621.77;107693;1259;68727;-71
2022/11/19 08:56:58;;;;;;;37.80;20.80;;;;;;;2.90;78.29;100626.12;107849;1260;72925;-71
2022/11/19 08:59:26;;;;;;;52.80;31.70;;;;;;;3.12;78.99;100620.04;107657;1270;62363;-72
2022/11/19 09:01:55;;;;;;;19.30;12.50;;;;;;;3.33;77.86;100610.54;107727;1260;58714;-72
2022/11/19 09:04:24;;;;;;;17.80;11.50;;;;;;;3.31;77.72;100612.35;107743;1263;70811;-72
2022/11/19 09:06:52;;;;;;;15.20;11.20;;;;;;;3.49;77.28;100618.45;107954;1255;71285;-72
2022/11/19 09:09:21;;;;;;;16.10;10.00;;;;;;;3.39;76.77;100628.33;107736;1270;68313;-71
2022/11/19 09:11:50;;;;;;;17.30;11.10;;;;;;;3.37;77.03;100629.80;107759;1260;71860;-71
2022/11/19 09:14:18;;;;;;;14.80;10.60;;;;;;;3.35;76.10;100636.59;107783;1260;61159;-70
2022/11/19 09:16:47;;;;;;;21.00;14.50;;;;;;;3.32;76.24;100639.33;107846;1256;60649;-72
2022/11/19 09:19:16;;;;;;;21.20;14.40;;;;;;;3.35;76.51;100643.67;108002;1260;72142;-73
2022/11/19 09:21:45;;;;;;;18.70;12.30;;;;;;;3.39;76.50;100660.69;107930;1260;70370;-71
2022/11/19 09:24:13;;;;;;;15.50;10.60;;;;;;;3.53;75.71;100675.75;107798;1259;69908;-71
2022/11/19 09:26:42;;;;;;;17.40;11.80;;;;;;;3.49;75.04;100683.00;107641;1261;72342;-71
2022/11/19 09:29:17;;;;;;;16.80;11.70;;;;;;;3.55;74.95;100677.56;107694;1266;57712;-70
2022/11/19 09:31:46;;;;;;;17.70;11.20;;;;;;;3.56;75.45;100680.63;107719;1260;59400;-72
2022/11/19 09:34:15;;;;;;;15.10;10.60;;;;;;;3.63;75.25;100673.10;107726;1260;73432;-71
2022/11/19 09:36:43;;;;;;;19.30;12.00;;;;;;;3.58;75.22;100662.27;107799;1269;72260;-71
2022/11/19 09:39:12;;;;;;;17.60;13.00;;;;;;;3.63;74.31;100646.90;107714;1266;68934;-72
2022/11/19 09:41:42;;;;;;;17.80;12.00;;;;;;;3.57;75.05;100643.74;107622;1262;70483;-71
2022/11/19 09:44:29;;;;;;;19.10;12.60;;;;;;;3.69;75.72;100647.48;107797;1259;60986;-72
2022/11/19 09:47:27;;;;;;;16.30;12.00;;;;;;;3.80;74.62;100658.36;107828;1259;61537;-71
2022/11/19 09:50:18;;;;;;;34.30;18.20;;;;;;;3.88;75.29;100655.09;107649;1258;73255;-72
2022/11/19 09:53:05;;;;;;;21.30;12.80;;;;;;;3.76;74.26;100661.14;107776;1264;72686;-71
2022/11/19 09:55:39;;;;;;;21.40;12.00;;;;;;;3.74;74.65;100672.41;107689;1263;59300;-72
2022/11/19 09:58:15;;;;;;;17.00;11.00;;;;;;;3.69;74.56;100679.17;107849;1260;62987;-72
2022/11/19 10:00:44;;;;;;;18.80;12.60;;;;;;;3.65;74.63;100679.21;107719;1260;57176;-71
2022/11/19 10:03:19;;;;;;;15.40;10.00;;;;;;;3.71;74.41;100682.55;107635;1265;61493;-72
2022/11/19 10:06:18;;;;;;;24.90;15.40;;;;;;;3.62;74.78;100685.67;107598;1256;63320;-71
2022/11/19 10:09:30;;;;;;;18.90;12.60;;;;;;;3.69;75.80;100693.14;107874;1258;70386;-71
2022/11/19 10:12:37;;;;;;;18.70;12.60;;;;;;;3.86;75.21;100711.16;107798;1268;69648;-72
2022/11/19 10:15:11;;;;;;;19.20;12.00;;;;;;;3.90;74.71;100724.77;107348;1269;64526;-73
2022/11/19 10:18:32;;;;;;;28.90;18.30;;;;;;;3.70;75.75;100729.59;107755;1257;57022;-72
2022/11/19 10:21:15;;;;;;;16.80;12.40;;;;;;;3.87;76.02;100736.27;107823;1268;57654;-73
2022/11/19 10:24:21;;;;;;;20.20;13.60;;;;;;;3.95;74.64;100734.69;107807;1263;63229;-71
2022/11/19 10:27:03;;;;;;;20.00;13.50;;;;;;;3.91;73.95;100738.15;107866;1264;61577;-71
2022/11/19 10:29:39;;;;;;;22.20;15.50;;;;;;;4.13;73.81;100734.44;107476;1260;350244;-72
2022/11/19 10:32:25;;;;;;;14.80;9.40;;;;;;;4.31;74.48;100726.86;107582;1259;74071;-72
2022/11/19 10:35:02;;;;;;;21.30;15.00;;;;;;;4.50;72.52;100728.77;107653;1260;57152;-72
2022/11/19 10:37:40;;;;;;;17.10;11.50;;;;;;;4.57;72.99;100742.75;107664;1256;60227;-71
2022/11/19 10:40:18;;;;;;;17.00;12.40;;;;;;;4.74;71.89;100751.41;107809;1260;73226;-71
2022/11/19 10:42:57;;;;;;;18.40;12.00;;;;;;;4.65;71.05;100742.52;107778;1259;70329;-72
2022/11/19 10:45:28;;;;;;;15.70;11.40;;;;;;;4.75;70.52;100743.97;107495;1263;60422;-71
2022/11/19 10:48:14;;;;;;;17.60;12.00;;;;;;;4.64;70.22;100739.33;107544;1262;71305;-71
2022/11/19 10:50:43;;;;;;;18.00;12.20;;;;;;;4.62;70.23;100740.10;107611;1260;57174;-72
2022/11/19 10:53:35;;;;;;;17.40;12.60;;;;;;;4.41;70.75;100754.16;107543;1266;60246;-73
2022/11/19 10:56:33;;;;;;;17.80;12.50;;;;;;;4.19;71.06;100763.80;107602;1266;64594;-72
2022/11/19 10:59:25;;;;;;;17.40;12.70;;;;;;;4.14;71.43;100776.95;107713;1261;60633;-71
2022/11/19 11:02:15;;;;;;;22.20;12.60;;;;;;;3.90;71.61;100777.30;107558;1270;60329;-71
2022/11/19 11:05:14;;;;;;;18.60;12.80;;;;;;;3.94;73.78;100775.40;107455;1259;63911;-71
2022/11/19 11:08:00;;;;;;;16.80;12.00;;;;;;;4.12;72.22;100789.08;107376;1263;60331;-72
2022/11/19 11:10:44;;;;;;;15.70;11.70;;;;;;;4.23;71.33;100797.23;107495;1266;62087;-70
2022/11/19 11:16:52;;;;;;;16.80;10.30;;;;;;;4.16;71.23;100814.64;107437;1264;61042;-72
2022/11/19 11:19:21;;;;;;;19.90;11.90;;;;;;;4.15;71.08;100815.86;107662;1260;58999;-72
2022/11/19 11:21:53;;;;;;;18.10;10.60;;;;;;;4.23;71.19;100816.39;107627;1260;73699;-73
2022/11/19 11:24:32;;;;;;;18.60;12.70;;;;;;;4.35;70.87;100821.33;107678;1263;59166;-73
2022/11/19 11:27:32;;;;;;;20.70;13.20;;;;;;;4.66;70.72;100815.63;107512;1263;61099;-73
2022/11/19 11:30:10;;;;;;;18.70;13.20;;;;;;;4.78;69.59;100810.91;107589;1270;64926;-72
2022/11/19 11:32:40;;;;;;;19.50;12.90;;;;;;;4.85;69.69;100815.08;107710;1259;70148;-72
2022/11/19 11:35:29;;;;;;;16.30;11.10;;;;;;;4.97;70.17;100823.33;107580;1257;70304;-72
2022/11/19 11:38:01;;;;;;;18.90;12.50;;;;;;;5.34;69.62;100827.09;107537;1269;70425;-71
2022/11/19 11:40:30;;;;;;;19.00;12.50;;;;;;;5.35;68.92;100827.23;107676;1263;58905;-72
2022/11/19 11:42:59;;;;;;;18.30;13.30;;;;;;;5.34;69.29;100828.80;107676;1260;58867;-71
2022/11/19 11:45:32;;;;;;;18.90;12.80;;;;;;;5.55;67.49;100826.91;107690;1260;71532;-72
2022/11/19 11:48:07;;;;;;;20.90;12.50;;;;;;;5.69;67.66;100843.48;107786;1258;69444;-71
2022/11/19 11:50:36;;;;;;;17.30;12.80;;;;;;;5.86;67.66;100852.20;107829;1260;68591;-73
2022/11/19 11:53:08;;;;;;;18.50;12.90;;;;;;;5.63;67.19;100848.98;107593;1254;62462;-74
2022/11/19 11:55:37;;;;;;;20.70;11.90;;;;;;;5.30;67.52;100847.14;107558;1263;57157;-72
2022/11/19 11:58:29;;;;;;;17.00;12.00;;;;;;;5.22;67.51;100849.96;107578;1263;57617;-74
2022/11/19 12:01:18;;;;;;;16.80;12.20;;;;;;;4.99;67.69;100857.05;107701;1267;62031;-70
2022/11/19 12:03:56;;;;;;;17.10;11.70;;;;;;;4.63;68.50;100863.17;107689;1253;60591;-72
2022/11/19 12:06:34;;;;;;;16.60;11.70;;;;;;;4.67;68.32;100863.02;107528;1270;69707;-79
2022/11/19 12:09:26;;;;;;;19.80;12.90;;;;;;;4.47;68.66;100864.26;107691;1262;71956;-79
2022/11/19 12:12:07;;;;;;;22.10;13.00;;;;;;;4.36;70.03;100860.95;107626;1266;57120;-77
2022/11/19 12:15:11;;;;;;;23.40;14.80;;;;;;;4.42;69.99;100861.25;107676;1260;58231;-76